Time;durP1;ratioP1;P1;durP2;ratioP2;P2;SDS_P1;SDS_P2;PMS_P1;PMS_P2;Temp;Humidity;BMP_temperature;BMP_pressure;BME280_temperature;BME280_humidity;BME280_pressure;Samples;Min_cycle;Max_cycle;Signal;HPM_P1;HPM_P2
2023/07/18 00:00:18;;;;;;;;;;;18.80;86.50;;;;;;2097913;28;20397;-73
2023/07/18 00:01:20;;;;;;;;;;;18.80;86.70;;;;;;2090609;28;20367;-73
2023/07/18 00:02:20;;;;;;;;;;;18.70;86.80;;;;;;2097745;28;19916;-74
2023/07/18 00:03:21;;;;;;;;;;;18.70;87.10;;;;;;2095926;28;20163;-74
2023/07/18 00:04:21;;;;;;;;;;;18.70;87.50;;;;;;2089953;28;19981;-74
2023/07/18 00:05:22;;;;;;;;;;;18.70;87.50;;;;;;2094367;28;19908;-74
2023/07/18 00:06:24;;;;;;;;;;;18.60;87.50;;;;;;2097321;28;20322;-73
2023/07/18 00:07:25;;;;;;;;;;;18.60;87.50;;;;;;2098583;28;19916;-74
2023/07/18 00:08:26;;;;;;;;;;;18.60;87.90;;;;;;2089777;28;19974;-74
2023/07/18 00:09:26;;;;;;;;;;;18.60;87.90;;;;;;2091404;28;19958;-73
2023/07/18 00:10:27;;;;;;;;;;;18.50;88.10;;;;;;2095555;28;20610;-73
2023/07/18 00:11:27;;;;;;;;;;;18.50;88.20;;;;;;2095780;28;19913;-72
2023/07/18 00:12:28;;;;;;;;;;;18.40;88.70;;;;;;2098862;28;20033;-73
2023/07/18 00:13:28;;;;;;;;;;;18.40;88.80;;;;;;2096854;28;19932;-73
2023/07/18 00:14:31;;;;;;;;;;;18.40;89.00;;;;;;2096907;28;20007;-73
2023/07/18 00:15:32;;;;;;;;;;;18.40;89.40;;;;;;2093996;28;19909;-74
2023/07/18 00:16:32;;;;;;;;;;;18.30;89.40;;;;;;2097508;28;19935;-73
2023/07/18 00:17:33;;;;;;;;;;;18.30;89.40;;;;;;2095059;28;19917;-73
2023/07/18 00:18:34;;;;;;;;;;;18.30;89.60;;;;;;2094996;28;19916;-73
2023/07/18 00:19:35;;;;;;;;;;;18.30;90.10;;;;;;2097866;28;20003;-74
2023/07/18 00:20:35;;;;;;;;;;;18.30;90.20;;;;;;2094238;28;19916;-73
2023/07/18 00:21:36;;;;;;;;;;;18.30;90.10;;;;;;2095861;28;19917;-72
2023/07/18 00:22:37;;;;;;;;;;;18.30;90.00;;;;;;2092100;28;19920;-72
2023/07/18 00:23:37;;;;;;;;;;;18.20;90.00;;;;;;2096914;28;19912;-73
2023/07/18 00:24:38;;;;;;;;;;;18.30;90.20;;;;;;2096888;28;19923;-73
2023/07/18 00:25:39;;;;;;;;;;;18.20;90.00;;;;;;2097763;28;19920;-73
2023/07/18 00:26:40;;;;;;;;;;;18.20;89.80;;;;;;2095271;28;19917;-75
2023/07/18 00:27:40;;;;;;;;;;;18.20;90.00;;;;;;2095301;28;19913;-74
2023/07/18 00:28:41;;;;;;;;;;;18.20;90.20;;;;;;2097662;28;19924;-74
2023/07/18 00:29:43;;;;;;;;;;;18.20;90.20;;;;;;2098036;28;19928;-73
2023/07/18 00:30:44;;;;;;;;;;;18.10;90.20;;;;;;2092415;28;19983;-73
2023/07/18 00:31:44;;;;;;;;;;;18.10;90.10;;;;;;2100944;28;19911;-73
2023/07/18 00:32:45;;;;;;;;;;;18.10;89.90;;;;;;2095057;28;19966;-73
2023/07/18 00:33:46;;;;;;;;;;;18.10;89.90;;;;;;2096966;28;20310;-73
2023/07/18 00:34:48;;;;;;;;;;;18.10;90.10;;;;;;2097218;28;19916;-73
2023/07/18 00:35:48;;;;;;;;;;;18.00;90.30;;;;;;2094724;28;19916;-74
2023/07/18 00:36:55;;;;;;;;;;;18.00;90.50;;;;;;2094815;28;19916;-72
2023/07/18 00:37:57;;;;;;;;;;;18.00;90.50;;;;;;2094867;28;20641;-74
2023/07/18 00:38:58;;;;;;;;;;;18.00;90.60;;;;;;2095834;28;19920;-74
2023/07/18 00:39:58;;;;;;;;;;;18.00;90.70;;;;;;2095829;28;19916;-73
2023/07/18 00:40:59;;;;;;;;;;;18.00;90.80;;;;;;2098474;28;19917;-74
2023/07/18 00:42:00;;;;;;;;;;;18.00;91.00;;;;;;2095446;28;19991;-74
2023/07/18 00:43:01;;;;;;;;;;;18.00;91.10;;;;;;2087400;28;20544;-74
2023/07/18 00:44:02;;;;;;;;;;;17.90;91.20;;;;;;2093603;28;19962;-74
2023/07/18 00:45:04;;;;;;;;;;;17.90;91.10;;;;;;2089402;28;19931;-73
2023/07/18 00:46:05;;;;;;;;;;;17.90;90.90;;;;;;2091017;28;19920;-73
2023/07/18 00:47:07;;;;;;;;;;;17.90;91.00;;;;;;2093060;28;20423;-73
2023/07/18 00:48:09;;;;;;;;;;;17.80;91.10;;;;;;2096730;28;19920;-74
2023/07/18 00:49:10;;;;;;;;;;;17.80;91.20;;;;;;2095238;28;19997;-74
2023/07/18 00:50:14;;;;;;;;;;;17.80;91.30;;;;;;2095249;28;19917;-73
2023/07/18 00:51:15;;;;;;;;;;;17.80;91.40;;;;;;2095169;28;19974;-73
2023/07/18 00:52:15;;;;;;;;;;;17.80;91.50;;;;;;2089143;28;19913;-73
2023/07/18 00:53:16;;;;;;;;;;;17.80;91.60;;;;;;2087490;28;19916;-73
2023/07/18 00:54:17;;;;;;;;;;;17.80;91.70;;;;;;2091176;28;19951;-75
2023/07/18 00:55:18;;;;;;;;;;;17.80;91.70;;;;;;2096006;28;19973;-75
2023/07/18 00:56:19;;;;;;;;;;;17.80;91.70;;;;;;2087677;28;19978;-74
2023/07/18 00:57:20;;;;;;;;;;;17.70;91.80;;;;;;2092492;28;19912;-73
2023/07/18 00:58:21;;;;;;;;;;;17.70;91.90;;;;;;2094928;28;20032;-72
2023/07/18 00:59:22;;;;;;;;;;;17.70;91.90;;;;;;2094668;28;19916;-73
2023/07/18 01:00:25;;;;;;;;;;;17.70;91.90;;;;;;2094689;28;19916;-73
2023/07/18 01:01:25;;;;;;;;;;;17.70;91.90;;;;;;2089142;28;20298;-73
2023/07/18 01:02:26;;;;;;;;;;;17.70;92.00;;;;;;2095609;28;20365;-73
2023/07/18 01:03:27;;;;;;;;;;;17.70;92.10;;;;;;2083998;28;19944;-73
2023/07/18 01:04:27;;;;;;;;;;;17.70;92.20;;;;;;2093863;28;20417;-74
2023/07/18 01:05:29;;;;;;;;;;;17.70;92.20;;;;;;2089064;28;19923;-74
2023/07/18 01:06:31;;;;;;;;;;;17.70;92.30;;;;;;2093141;28;20638;-73
2023/07/18 01:07:31;;;;;;;;;;;17.70;92.40;;;;;;2090567;28;19927;-76
2023/07/18 01:08:32;;;;;;;;;;;17.70;92.30;;;;;;2081461;28;19939;-73
2023/07/18 01:09:34;;;;;;;;;;;17.70;92.30;;;;;;2095689;28;19917;-75
2023/07/18 01:10:37;;;;;;;;;;;17.70;92.40;;;;;;2095358;28;19916;-71
2023/07/18 01:11:38;;;;;;;;;;;17.70;92.60;;;;;;2088608;28;19916;-73
2023/07/18 01:12:39;;;;;;;;;;;17.60;92.90;;;;;;2093087;28;19920;-72
2023/07/18 01:13:39;;;;;;;;;;;17.60;92.90;;;;;;2093737;28;19969;-72
2023/07/18 01:14:40;;;;;;;;;;;17.60;92.80;;;;;;2095662;28;19959;-74
2023/07/18 01:15:41;;;;;;;;;;;17.60;92.90;;;;;;2099607;28;19912;-73
2023/07/18 01:16:41;;;;;;;;;;;17.60;93.00;;;;;;2093866;28;20422;-73
2023/07/18 01:17:44;;;;;;;;;;;17.60;93.00;;;;;;2089604;28;19953;-74
2023/07/18 01:18:45;;;;;;;;;;;17.60;92.90;;;;;;2090108;28;19917;-73
2023/07/18 01:19:45;;;;;;;;;;;17.60;92.80;;;;;;2095150;28;19912;-73
2023/07/18 01:20:46;;;;;;;;;;;17.50;92.80;;;;;;2095101;28;19912;-75
2023/07/18 01:21:47;;;;;;;;;;;17.50;92.90;;;;;;2096020;28;19920;-73
2023/07/18 01:22:51;;;;;;;;;;;17.50;93.00;;;;;;2091999;28;20342;-73
2023/07/18 01:23:51;;;;;;;;;;;17.50;93.00;;;;;;2096548;28;19912;-74
2023/07/18 01:24:51;;;;;;;;;;;17.50;93.10;;;;;;2096662;28;19912;-74
2023/07/18 01:25:52;;;;;;;;;;;17.50;93.30;;;;;;2097387;28;19919;-74
2023/07/18 01:26:53;;;;;;;;;;;17.50;93.40;;;;;;2094377;28;20454;-74
2023/07/18 01:27:55;;;;;;;;;;;17.50;93.60;;;;;;2094226;28;20395;-74
2023/07/18 01:28:55;;;;;;;;;;;17.50;93.90;;;;;;2094694;28;19959;-74
2023/07/18 01:29:56;;;;;;;;;;;17.50;94.00;;;;;;2097893;28;20410;-75
2023/07/18 01:30:56;;;;;;;;;;;17.50;93.70;;;;;;2095301;28;20003;-74
2023/07/18 01:31:57;;;;;;;;;;;17.50;93.50;;;;;;2095131;28;19916;-73
2023/07/18 01:32:58;;;;;;;;;;;17.50;93.50;;;;;;2095611;28;19924;-74
2023/07/18 01:33:58;;;;;;;;;;;17.50;93.60;;;;;;2096082;28;20036;-74
2023/07/18 01:35:01;;;;;;;;;;;17.50;93.70;;;;;;2096356;28;19920;-73
2023/07/18 01:36:02;;;;;;;;;;;17.50;94.00;;;;;;2096471;28;20371;-73
2023/07/18 01:37:03;;;;;;;;;;;17.50;94.00;;;;;;2096529;28;20119;-74
2023/07/18 01:38:04;;;;;;;;;;;17.40;93.40;;;;;;2097274;28;20417;-74
2023/07/18 01:39:05;;;;;;;;;;;17.40;93.30;;;;;;2096111;28;19923;-75
2023/07/18 01:40:08;;;;;;;;;;;17.40;93.40;;;;;;2094030;28;19924;-74
2023/07/18 01:41:10;;;;;;;;;;;17.40;93.20;;;;;;2086310;28;20000;-73
2023/07/18 01:42:11;;;;;;;;;;;17.40;93.70;;;;;;2094511;28;20555;-73
2023/07/18 01:43:12;;;;;;;;;;;17.40;94.10;;;;;;2098562;28;20383;-73
2023/07/18 01:44:13;;;;;;;;;;;17.40;94.10;;;;;;2096432;28;19916;-73
2023/07/18 01:45:13;;;;;;;;;;;17.40;94.10;;;;;;2095236;28;19912;-75
2023/07/18 01:46:14;;;;;;;;;;;17.40;94.20;;;;;;2095611;28;20385;-73
2023/07/18 01:47:14;;;;;;;;;;;17.40;94.30;;;;;;2095422;28;19916;-72
2023/07/18 01:48:15;;;;;;;;;;;17.30;93.70;;;;;;2096791;28;19916;-74
2023/07/18 01:49:15;;;;;;;;;;;17.30;93.50;;;;;;2094429;28;20162;-74
2023/07/18 01:50:16;;;;;;;;;;;17.30;93.30;;;;;;2094636;28;19923;-73
2023/07/18 01:51:16;;;;;;;;;;;17.30;93.20;;;;;;2095172;28;19920;-73
2023/07/18 01:52:17;;;;;;;;;;;17.30;93.20;;;;;;2102766;28;19913;-73
2023/07/18 01:53:17;;;;;;;;;;;17.30;93.30;;;;;;2092217;28;19940;-73
2023/07/18 01:54:18;;;;;;;;;;;17.30;93.30;;;;;;2097515;28;20357;-73
2023/07/18 01:55:19;;;;;;;;;;;17.30;93.30;;;;;;2089464;28;20295;-73
2023/07/18 01:56:20;;;;;;;;;;;17.30;93.30;;;;;;2091274;28;20007;-73
2023/07/18 01:57:21;;;;;;;;;;;17.30;93.40;;;;;;2092570;28;20460;-72
2023/07/18 01:58:21;;;;;;;;;;;17.20;93.80;;;;;;2096531;28;20054;-73
2023/07/18 01:59:22;;;;;;;;;;;17.30;94.00;;;;;;2086773;28;20418;-74
2023/07/18 02:00:24;;;;;;;;;;;17.30;93.50;;;;;;2094255;28;19912;-73
2023/07/18 02:01:26;;;;;;;;;;;17.20;93.30;;;;;;2094817;28;20044;-73
2023/07/18 02:02:29;;;;;;;;;;;17.20;93.20;;;;;;2096825;28;20286;-73
2023/07/18 02:03:30;;;;;;;;;;;17.20;92.90;;;;;;2097097;28;19920;-73
2023/07/18 02:04:31;;;;;;;;;;;17.20;93.10;;;;;;2093365;28;19920;-72
2023/07/18 02:05:32;;;;;;;;;;;17.20;93.10;;;;;;2097765;28;19912;-74
2023/07/18 02:06:32;;;;;;;;;;;17.20;93.00;;;;;;2099204;28;19939;-74
2023/07/18 02:07:33;;;;;;;;;;;17.20;93.10;;;;;;2094383;28;19916;-74
2023/07/18 02:08:33;;;;;;;;;;;17.20;93.10;;;;;;2087630;28;20379;-73
2023/07/18 02:09:34;;;;;;;;;;;17.20;93.10;;;;;;2095987;28;19923;-73
2023/07/18 02:10:35;;;;;;;;;;;17.20;93.50;;;;;;2098691;28;19916;-73
2023/07/18 02:11:35;;;;;;;;;;;17.20;93.90;;;;;;2089775;28;20363;-74
2023/07/18 02:12:36;;;;;;;;;;;17.20;94.00;;;;;;2086260;28;19916;-73
2023/07/18 02:13:37;;;;;;;;;;;17.10;94.30;;;;;;2088285;28;20441;-73
2023/07/18 02:14:43;;;;;;;;;;;17.10;94.30;;;;;;2085938;28;20098;-74
2023/07/18 02:15:43;;;;;;;;;;;17.10;94.30;;;;;;2088579;28;19920;-73
2023/07/18 02:16:46;;;;;;;;;;;17.10;94.50;;;;;;2094516;28;20151;-74
2023/07/18 02:17:47;;;;;;;;;;;17.10;94.60;;;;;;2100837;28;19931;-74
2023/07/18 02:18:47;;;;;;;;;;;17.10;95.00;;;;;;2096022;28;20000;-74
2023/07/18 02:19:48;;;;;;;;;;;17.10;94.80;;;;;;2095570;28;19917;-72
2023/07/18 02:20:48;;;;;;;;;;;17.10;94.90;;;;;;2095207;28;19995;-74
2023/07/18 02:21:49;;;;;;;;;;;17.00;95.10;;;;;;2096729;28;19922;-73
2023/07/18 02:22:50;;;;;;;;;;;17.00;95.20;;;;;;2091584;28;19924;-74
2023/07/18 02:23:50;;;;;;;;;;;17.00;95.30;;;;;;2094310;28;20409;-73
2023/07/18 02:24:51;;;;;;;;;;;17.00;95.40;;;;;;2097231;28;19953;-74
2023/07/18 02:25:51;;;;;;;;;;;17.00;95.40;;;;;;2099024;28;19922;-73
2023/07/18 02:26:54;;;;;;;;;;;17.00;95.40;;;;;;2096567;28;20007;-73
2023/07/18 02:27:54;;;;;;;;;;;17.00;95.40;;;;;;2096369;28;20001;-74
2023/07/18 02:28:55;;;;;;;;;;;17.00;95.40;;;;;;2091527;28;20196;-73
2023/07/18 02:30:02;;;;;;;;;;;17.00;95.40;;;;;;2098151;28;19916;-75
2023/07/18 02:31:02;;;;;;;;;;;16.90;95.70;;;;;;2089556;28;19939;-74
2023/07/18 02:32:03;;;;;;;;;;;17.00;96.00;;;;;;2093296;28;19989;-73
2023/07/18 02:33:06;;;;;;;;;;;17.00;95.90;;;;;;2097436;28;19912;-73
2023/07/18 02:34:07;;;;;;;;;;;16.90;95.70;;;;;;2097720;28;20379;-73
2023/07/18 02:35:08;;;;;;;;;;;16.90;95.60;;;;;;2097662;28;19912;-73
2023/07/18 02:36:12;;;;;;;;;;;16.90;95.70;;;;;;2097464;28;19918;-73
2023/07/18 02:37:12;;;;;;;;;;;16.90;95.70;;;;;;2098426;28;19923;-73
2023/07/18 02:38:13;;;;;;;;;;;16.90;95.90;;;;;;2095016;28;20170;-73
2023/07/18 02:39:13;;;;;;;;;;;16.90;95.90;;;;;;2090604;28;19912;-73
2023/07/18 02:40:15;;;;;;;;;;;16.90;96.00;;;;;;2099084;28;19916;-73
2023/07/18 02:41:16;;;;;;;;;;;16.90;96.00;;;;;;2098618;28;19923;-74
2023/07/18 02:42:20;;;;;;;;;;;16.90;96.20;;;;;;2093029;28;19923;-74
2023/07/18 02:43:20;;;;;;;;;;;16.80;96.30;;;;;;2092202;28;19916;-74
2023/07/18 02:44:21;;;;;;;;;;;16.80;96.10;;;;;;2101637;28;20459;-74
2023/07/18 02:45:22;;;;;;;;;;;16.80;96.20;;;;;;2095938;28;19923;-73
2023/07/18 02:46:23;;;;;;;;;;;16.80;96.30;;;;;;2091596;28;20335;-73
2023/07/18 02:47:23;;;;;;;;;;;16.80;96.30;;;;;;2094968;28;19912;-73
2023/07/18 02:48:24;;;;;;;;;;;16.80;96.40;;;;;;2096222;28;19916;-74
2023/07/18 02:49:24;;;;;;;;;;;16.80;96.60;;;;;;2098793;28;19923;-74
2023/07/18 02:50:26;;;;;;;;;;;16.80;96.60;;;;;;2097585;28;19916;-74
2023/07/18 02:51:27;;;;;;;;;;;16.70;96.60;;;;;;2097445;28;20511;-74
2023/07/18 02:52:28;;;;;;;;;;;16.70;96.80;;;;;;2096654;28;19960;-74
2023/07/18 02:53:28;;;;;;;;;;;16.80;97.10;;;;;;2093182;28;19939;-74
2023/07/18 02:54:29;;;;;;;;;;;16.70;97.20;;;;;;2096853;28;20306;-74
2023/07/18 02:55:29;;;;;;;;;;;16.70;97.50;;;;;;2093930;28;19920;-74
2023/07/18 02:56:32;;;;;;;;;;;16.80;97.60;;;;;;2094995;28;19922;-74
2023/07/18 02:57:32;;;;;;;;;;;16.70;97.90;;;;;;2093626;28;19912;-74
2023/07/18 02:58:33;;;;;;;;;;;16.70;98.20;;;;;;2090585;28;19940;-73
2023/07/18 02:59:33;;;;;;;;;;;16.70;97.90;;;;;;2089693;28;20396;-74
2023/07/18 03:00:36;;;;;;;;;;;16.70;97.90;;;;;;2085529;28;19979;-73
2023/07/18 03:01:36;;;;;;;;;;;16.70;97.90;;;;;;2094412;28;20217;-73
2023/07/18 03:02:37;;;;;;;;;;;16.70;98.00;;;;;;2093963;28;19959;-73
2023/07/18 03:03:40;;;;;;;;;;;16.70;98.20;;;;;;2096213;28;19999;-73
2023/07/18 03:04:42;;;;;;;;;;;16.70;98.20;;;;;;2103162;28;19922;-72
2023/07/18 03:05:42;;;;;;;;;;;16.70;98.30;;;;;;2100768;28;19965;-73
2023/07/18 03:06:45;;;;;;;;;;;16.70;98.60;;;;;;2097661;28;19916;-74
2023/07/18 03:07:49;;;;;;;;;;;16.70;98.70;;;;;;2095316;28;19916;-73
2023/07/18 03:08:49;;;;;;;;;;;16.60;98.80;;;;;;2091384;28;19931;-73
2023/07/18 03:09:50;;;;;;;;;;;16.60;99.00;;;;;;2096032;28;20409;-73
2023/07/18 03:10:50;;;;;;;;;;;16.60;99.00;;;;;;2098841;28;19981;-73
2023/07/18 03:11:51;;;;;;;;;;;16.60;99.10;;;;;;2096657;28;20446;-73
2023/07/18 03:12:51;;;;;;;;;;;16.50;99.30;;;;;;2095751;28;19924;-73
2023/07/18 03:13:54;;;;;;;;;;;16.50;99.30;;;;;;2096202;28;19924;-73
2023/07/18 03:14:55;;;;;;;;;;;16.50;99.30;;;;;;2097432;28;19916;-73
2023/07/18 03:15:55;;;;;;;;;;;16.50;99.50;;;;;;2097274;28;20459;-73
2023/07/18 03:16:56;;;;;;;;;;;16.50;99.80;;;;;;2098086;28;19965;-73
2023/07/18 03:17:56;;;;;;;;;;;16.50;99.90;;;;;;2096009;28;20011;-72
2023/07/18 03:18:59;;;;;;;;;;;16.50;99.90;;;;;;2095831;28;20391;-73
2023/07/18 03:19:59;;;;;;;;;;;16.50;99.90;;;;;;2095733;28;20086;-73
2023/07/18 03:21:00;;;;;;;;;;;16.50;99.90;;;;;;2098407;28;20339;-73
2023/07/18 03:22:00;;;;;;;;;;;16.50;99.90;;;;;;2096424;28;19913;-72
2023/07/18 03:23:04;;;;;;;;;;;16.50;99.90;;;;;;2095813;28;20436;-73
2023/07/18 03:24:08;;;;;;;;;;;16.50;99.90;;;;;;2095935;28;20119;-73
2023/07/18 03:25:10;;;;;;;;;;;16.50;99.90;;;;;;2101867;28;19923;-72
2023/07/18 03:26:10;;;;;;;;;;;16.50;99.90;;;;;;2093144;28;20404;-73
2023/07/18 03:27:12;;;;;;;;;;;16.60;99.90;;;;;;2095991;28;19956;-73
2023/07/18 03:28:12;;;;;;;;;;;16.50;99.90;;;;;;2095939;28;19919;-73
2023/07/18 03:29:13;;;;;;;;;;;16.50;99.90;;;;;;2095774;28;19920;-73
2023/07/18 03:30:14;;;;;;;;;;;16.50;99.90;;;;;;2098646;28;20002;-73
2023/07/18 03:31:14;;;;;;;;;;;16.50;99.90;;;;;;2097386;28;20385;-72
2023/07/18 03:32:15;;;;;;;;;;;16.50;99.90;;;;;;2097089;28;19916;-75
2023/07/18 03:33:16;;;;;;;;;;;16.50;99.90;;;;;;2096340;28;19916;-72
2023/07/18 03:34:17;;;;;;;;;;;16.50;99.90;;;;;;2087807;28;20478;-72
2023/07/18 03:35:20;;;;;;;;;;;16.50;99.90;;;;;;2097190;28;19920;-73
2023/07/18 03:36:20;;;;;;;;;;;16.50;99.90;;;;;;2097049;28;19912;-73
2023/07/18 03:37:24;;;;;;;;;;;16.60;99.90;;;;;;2090693;28;19944;-75
2023/07/18 03:38:25;;;;;;;;;;;16.60;99.90;;;;;;2098507;28;19939;-73
2023/07/18 03:39:25;;;;;;;;;;;16.60;99.70;;;;;;2096194;28;19936;-73
2023/07/18 03:40:26;;;;;;;;;;;16.60;99.50;;;;;;2098158;28;19913;-73
2023/07/18 03:41:28;;;;;;;;;;;16.70;99.70;;;;;;2089674;28;19966;-73
2023/07/18 03:42:28;;;;;;;;;;;16.70;99.70;;;;;;2092553;28;19912;-74
2023/07/18 03:43:29;;;;;;;;;;;16.80;99.90;;;;;;2098925;28;19919;-74
2023/07/18 03:44:29;;;;;;;;;;;16.80;99.90;;;;;;2095839;28;19923;-74
2023/07/18 03:45:30;;;;;;;;;;;16.80;99.90;;;;;;2095111;28;20280;-73
2023/07/18 03:46:30;;;;;;;;;;;16.80;99.90;;;;;;2095023;28;19990;-73
2023/07/18 03:47:31;;;;;;;;;;;16.80;99.90;;;;;;2098687;28;19913;-73
2023/07/18 03:48:31;;;;;;;;;;;16.90;99.90;;;;;;2095986;28;20187;-74
2023/07/18 03:49:32;;;;;;;;;;;16.90;99.90;;;;;;2093139;28;19921;-74
2023/07/18 03:50:32;;;;;;;;;;;16.90;99.90;;;;;;2100407;28;20340;-73
2023/07/18 03:51:33;;;;;;;;;;;16.90;99.90;;;;;;2094224;28;20295;-73
2023/07/18 03:52:33;;;;;;;;;;;16.90;99.90;;;;;;2096155;28;20317;-72
2023/07/18 03:53:34;;;;;;;;;;;16.90;99.90;;;;;;2098037;28;19919;-74
2023/07/18 03:54:34;;;;;;;;;;;16.90;99.90;;;;;;2091998;28;19916;-73
2023/07/18 03:55:35;;;;;;;;;;;16.90;99.90;;;;;;2094849;28;20015;-73
2023/07/18 03:56:36;;;;;;;;;;;16.90;99.90;;;;;;2096947;28;19920;-73
2023/07/18 03:57:37;;;;;;;;;;;17.00;99.90;;;;;;2098898;28;19913;-75
2023/07/18 03:58:37;;;;;;;;;;;17.00;99.90;;;;;;2091663;28;20273;-75
2023/07/18 03:59:38;;;;;;;;;;;17.00;99.90;;;;;;2095600;28;19919;-75
2023/07/18 04:00:39;;;;;;;;;;;17.00;99.90;;;;;;2093421;28;19959;-74
2023/07/18 04:01:39;;;;;;;;;;;16.90;99.90;;;;;;2097969;28;19912;-72
2023/07/18 04:02:42;;;;;;;;;;;16.90;99.90;;;;;;2095676;28;19963;-73
2023/07/18 04:03:43;;;;;;;;;;;16.90;99.90;;;;;;2091099;28;19939;-72
2023/07/18 04:04:43;;;;;;;;;;;16.90;99.90;;;;;;2095748;28;19948;-72
2023/07/18 04:05:44;;;;;;;;;;;16.90;99.90;;;;;;2098079;28;20343;-73
2023/07/18 04:06:44;;;;;;;;;;;16.90;99.90;;;;;;2096872;28;19916;-73
2023/07/18 04:07:45;;;;;;;;;;;16.90;99.90;;;;;;2096830;28;19948;-74
2023/07/18 04:08:46;;;;;;;;;;;16.90;99.90;;;;;;2082992;28;20418;-74
2023/07/18 04:09:46;;;;;;;;;;;17.00;99.90;;;;;;2096124;28;19974;-73
2023/07/18 04:10:47;;;;;;;;;;;17.00;99.90;;;;;;2096473;28;19915;-71
2023/07/18 04:11:47;;;;;;;;;;;17.00;99.90;;;;;;2098285;28;20007;-73
2023/07/18 04:12:48;;;;;;;;;;;17.00;99.90;;;;;;2095649;28;19920;-73
2023/07/18 04:13:48;;;;;;;;;;;17.00;99.20;;;;;;2095564;28;19979;-73
2023/07/18 04:14:49;;;;;;;;;;;17.10;99.00;;;;;;2095528;28;19912;-73
2023/07/18 04:15:49;;;;;;;;;;;17.10;98.40;;;;;;2098818;28;20371;-73
2023/07/18 04:16:51;;;;;;;;;;;17.20;98.10;;;;;;2092575;28;19916;-73
2023/07/18 04:17:51;;;;;;;;;;;17.40;97.80;;;;;;2096644;28;19913;-73
2023/07/18 04:18:52;;;;;;;;;;;17.60;97.50;;;;;;2095518;28;20031;-73
2023/07/18 04:19:52;;;;;;;;;;;18.00;97.00;;;;;;2095493;28;19942;-73
2023/07/18 04:21:00;;;;;;;;;;;18.40;96.10;;;;;;2093573;28;20007;-73
2023/07/18 04:22:01;;;;;;;;;;;18.80;95.10;;;;;;2093414;28;20372;-73
2023/07/18 04:23:01;;;;;;;;;;;19.30;93.50;;;;;;2088340;28;20382;-74
2023/07/18 04:24:04;;;;;;;;;;;19.60;92.80;;;;;;2093171;28;20386;-74
2023/07/18 04:25:04;;;;;;;;;;;20.00;92.00;;;;;;2095612;28;19999;-72
2023/07/18 04:26:06;;;;;;;;;;;20.30;91.00;;;;;;2098765;28;19917;-73
2023/07/18 04:27:06;;;;;;;;;;;20.60;90.20;;;;;;2089853;28;19920;-73
2023/07/18 04:28:07;;;;;;;;;;;20.70;89.30;;;;;;2093864;28;19916;-74
2023/07/18 04:29:07;;;;;;;;;;;20.80;88.70;;;;;;2095928;28;19924;-73
2023/07/18 04:30:08;;;;;;;;;;;20.80;88.70;;;;;;2092938;28;19912;-74
2023/07/18 04:31:09;;;;;;;;;;;20.60;88.90;;;;;;2096078;28;19998;-73
2023/07/18 04:32:10;;;;;;;;;;;20.50;89.60;;;;;;2098298;28;20011;-74
2023/07/18 04:33:12;;;;;;;;;;;20.50;90.00;;;;;;2096085;28;20328;-76
2023/07/18 04:34:15;;;;;;;;;;;20.70;89.40;;;;;;2095525;28;19974;-72
2023/07/18 04:35:16;;;;;;;;;;;20.90;88.90;;;;;;2095673;28;19916;-75
2023/07/18 04:36:17;;;;;;;;;;;21.10;87.70;;;;;;2095492;28;19916;-74
2023/07/18 04:37:17;;;;;;;;;;;21.40;87.00;;;;;;2098526;28;19920;-71
2023/07/18 04:38:18;;;;;;;;;;;21.60;85.40;;;;;;2096920;28;19921;-71
2023/07/18 04:39:19;;;;;;;;;;;21.80;84.90;;;;;;2093377;28;19958;-72
2023/07/18 04:40:19;;;;;;;;;;;22.10;84.00;;;;;;2096416;28;19935;-71
2023/07/18 04:41:20;;;;;;;;;;;22.30;82.50;;;;;;2096241;28;19951;-71
2023/07/18 04:42:20;;;;;;;;;;;22.40;82.00;;;;;;2093029;28;19958;-71
2023/07/18 04:43:21;;;;;;;;;;;22.40;81.80;;;;;;2095593;28;20010;-71
2023/07/18 04:44:22;;;;;;;;;;;22.30;81.60;;;;;;2095461;28;19946;-71
2023/07/18 04:45:22;;;;;;;;;;;22.30;82.30;;;;;;2095292;28;19959;-71
2023/07/18 04:46:23;;;;;;;;;;;22.30;82.20;;;;;;2098288;28;19916;-71
2023/07/18 04:47:23;;;;;;;;;;;22.40;81.30;;;;;;2096666;28;19920;-71
2023/07/18 04:48:24;;;;;;;;;;;22.40;80.30;;;;;;2096558;28;19912;-71
2023/07/18 04:49:25;;;;;;;;;;;22.40;79.60;;;;;;2096757;28;19921;-72
2023/07/18 04:50:25;;;;;;;;;;;22.40;79.70;;;;;;2090481;28;20261;-73
2023/07/18 04:51:26;;;;;;;;;;;22.60;80.00;;;;;;2095652;28;19920;-73
2023/07/18 04:52:27;;;;;;;;;;;22.80;79.20;;;;;;2095882;28;20315;-73
2023/07/18 04:53:28;;;;;;;;;;;23.00;78.00;;;;;;2095554;28;19916;-74
2023/07/18 04:54:28;;;;;;;;;;;23.10;77.20;;;;;;2094792;28;19917;-73
2023/07/18 04:55:28;;;;;;;;;;;23.30;76.50;;;;;;2098275;28;19935;-73
2023/07/18 04:56:29;;;;;;;;;;;23.40;76.10;;;;;;2097330;28;19988;-74
2023/07/18 04:57:29;;;;;;;;;;;23.60;75.80;;;;;;2092896;28;20511;-73
2023/07/18 04:58:30;;;;;;;;;;;23.70;75.30;;;;;;2096832;28;19912;-72
2023/07/18 04:59:31;;;;;;;;;;;23.90;74.30;;;;;;2097705;28;20375;-73
2023/07/18 05:00:32;;;;;;;;;;;24.10;74.50;;;;;;2095593;28;20322;-73
2023/07/18 05:01:33;;;;;;;;;;;24.30;73.00;;;;;;2095523;28;20430;-73
2023/07/18 05:02:33;;;;;;;;;;;24.40;72.80;;;;;;2094705;28;19917;-72
2023/07/18 05:03:34;;;;;;;;;;;24.70;72.30;;;;;;2097540;28;19917;-73
2023/07/18 05:04:34;;;;;;;;;;;24.80;71.20;;;;;;2096759;28;20467;-72
2023/07/18 05:05:35;;;;;;;;;;;25.00;70.60;;;;;;2091312;28;19923;-72
2023/07/18 05:06:35;;;;;;;;;;;25.00;70.00;;;;;;2092672;28;20366;-73
2023/07/18 05:07:36;;;;;;;;;;;24.80;69.80;;;;;;2093868;28;19966;-74
2023/07/18 05:08:37;;;;;;;;;;;24.60;70.50;;;;;;2089920;28;20786;-73
2023/07/18 05:09:38;;;;;;;;;;;24.30;71.20;;;;;;2095845;28;19920;-73
2023/07/18 05:10:39;;;;;;;;;;;23.80;71.80;;;;;;2095791;28;20022;-73
2023/07/18 05:11:39;;;;;;;;;;;23.40;73.20;;;;;;2095872;28;19912;-73
2023/07/18 05:12:40;;;;;;;;;;;23.00;74.10;;;;;;2095317;28;19924;-73
2023/07/18 05:13:40;;;;;;;;;;;22.80;74.80;;;;;;2097787;28;20330;-74
2023/07/18 05:14:41;;;;;;;;;;;22.70;75.10;;;;;;2096717;28;19913;-73
2023/07/18 05:15:42;;;;;;;;;;;22.70;75.20;;;;;;2093028;28;20271;-74
2023/07/18 05:16:42;;;;;;;;;;;22.90;74.90;;;;;;2096423;28;19920;-74
2023/07/18 05:17:43;;;;;;;;;;;23.10;74.20;;;;;;2097438;28;19916;-74
2023/07/18 05:18:43;;;;;;;;;;;23.30;73.70;;;;;;2094812;28;20651;-73
2023/07/18 05:19:45;;;;;;;;;;;23.70;72.90;;;;;;2095612;28;20019;-74
2023/07/18 05:20:46;;;;;;;;;;;24.10;72.10;;;;;;2094518;28;20267;-73
2023/07/18 05:21:47;;;;;;;;;;;24.40;70.90;;;;;;2095279;28;19915;-73
2023/07/18 05:22:47;;;;;;;;;;;24.70;69.70;;;;;;2098339;28;19913;-73
2023/07/18 05:23:48;;;;;;;;;;;24.90;69.20;;;;;;2096545;28;19920;-73
2023/07/18 05:24:48;;;;;;;;;;;25.20;68.60;;;;;;2096684;28;20028;-73
2023/07/18 05:25:49;;;;;;;;;;;25.20;68.00;;;;;;2097970;28;20307;-74
2023/07/18 05:26:50;;;;;;;;;;;25.20;67.60;;;;;;2095645;28;19927;-75
2023/07/18 05:27:50;;;;;;;;;;;25.20;67.00;;;;;;2095702;28;19967;-74
2023/07/18 05:28:51;;;;;;;;;;;25.30;66.80;;;;;;2095280;28;20391;-75
2023/07/18 05:29:51;;;;;;;;;;;25.30;66.70;;;;;;2095202;28;19913;-75
2023/07/18 05:30:52;;;;;;;;;;;25.40;66.50;;;;;;2097112;28;20394;-74
2023/07/18 05:31:52;;;;;;;;;;;25.30;66.30;;;;;;2095759;28;19923;-73
2023/07/18 05:32:53;;;;;;;;;;;25.30;66.60;;;;;;2091200;28;20291;-72
2023/07/18 05:33:53;;;;;;;;;;;25.30;66.80;;;;;;2088958;28;19971;-72
2023/07/18 05:34:54;;;;;;;;;;;25.40;66.60;;;;;;2097881;28;20032;-72
2023/07/18 05:35:54;;;;;;;;;;;25.30;66.10;;;;;;2091795;28;20777;-73
2023/07/18 05:36:55;;;;;;;;;;;25.10;66.50;;;;;;2088781;28;19917;-74
2023/07/18 05:37:56;;;;;;;;;;;25.10;66.50;;;;;;2090139;28;19971;-73
2023/07/18 05:38:56;;;;;;;;;;;25.20;66.50;;;;;;2096936;28;20403;-73
2023/07/18 05:39:57;;;;;;;;;;;25.10;66.60;;;;;;2099382;28;19916;-73
2023/07/18 05:40:58;;;;;;;;;;;24.90;66.70;;;;;;2098140;28;19955;-73
2023/07/18 05:41:58;;;;;;;;;;;24.70;67.30;;;;;;2092827;28;19993;-73
2023/07/18 05:42:59;;;;;;;;;;;24.40;68.00;;;;;;2090113;28;19917;-74
2023/07/18 05:43:59;;;;;;;;;;;24.20;68.70;;;;;;2091008;28;20383;-74
2023/07/18 05:45:00;;;;;;;;;;;24.00;69.90;;;;;;2092817;28;20926;-74
2023/07/18 05:46:00;;;;;;;;;;;23.80;70.10;;;;;;2090039;28;19923;-73
2023/07/18 05:47:01;;;;;;;;;;;23.70;70.70;;;;;;2095061;28;19934;-74
2023/07/18 05:48:01;;;;;;;;;;;23.80;70.90;;;;;;2096859;28;20361;-70
2023/07/18 05:49:02;;;;;;;;;;;23.80;70.80;;;;;;2100153;28;19924;-73
2023/07/18 05:50:03;;;;;;;;;;;23.80;71.10;;;;;;2093837;28;20386;-69
2023/07/18 05:51:04;;;;;;;;;;;24.00;70.90;;;;;;2097932;28;19916;-65
2023/07/18 05:52:04;;;;;;;;;;;24.20;70.40;;;;;;2099796;28;20390;-75
2023/07/18 05:53:05;;;;;;;;;;;24.50;69.70;;;;;;2095200;28;19923;-73
2023/07/18 05:54:06;;;;;;;;;;;24.60;69.00;;;;;;2095311;28;19959;-69